Time;durP1;ratioP1;P1;durP2;ratioP2;P2;SDS_P1;SDS_P2;PMS_P1;PMS_P2;Temp;Humidity;BMP_temperature;BMP_pressure;BME280_temperature;BME280_humidity;BME280_pressure;Samples;Min_cycle;Max_cycle;Signal;HPM_P1;HPM_P2
2024/04/08 00:01:08;;;;;;;2.63;1.15;;;21.90;64.80;;;;;;4950196;28;88505;-72
2024/04/08 00:03:34;;;;;;;3.03;1.30;;;21.90;64.60;;;;;;4951270;28;87595;-73
2024/04/08 00:06:00;;;;;;;2.83;1.15;;;22.00;64.60;;;;;;4947598;28;88808;-73
2024/04/08 00:08:26;;;;;;;3.25;1.15;;;21.90;64.50;;;;;;4949213;28;87309;-73
2024/04/08 00:10:52;;;;;;;1.38;1.00;;;22.00;64.50;;;;;;4944066;28;87962;-73
2024/04/08 00:13:17;;;;;;;3.78;1.20;;;21.90;64.50;;;;;;4947450;28;87121;-72
2024/04/08 00:15:44;;;;;;;2.03;0.90;;;21.90;64.50;;;;;;4950907;28;89345;-73
2024/04/08 00:18:11;;;;;;;2.35;1.20;;;21.90;64.50;;;;;;4945944;28;88384;-72
2024/04/08 00:20:37;;;;;;;1.35;0.90;;;21.90;64.40;;;;;;4949521;28;87575;-73
2024/04/08 00:23:03;;;;;;;1.83;1.20;;;21.90;64.40;;;;;;4947862;28;87166;-72
2024/04/08 00:25:29;;;;;;;2.50;1.15;;;21.90;64.40;;;;;;4947215;28;88422;-73
2024/04/08 00:27:55;;;;;;;2.42;1.10;;;21.90;64.30;;;;;;4951115;28;89342;-72
2024/04/08 00:30:21;;;;;;;2.35;1.15;;;21.90;64.30;;;;;;4949679;28;87200;-73
2024/04/08 00:32:47;;;;;;;4.85;2.20;;;21.90;64.70;;;;;;4947843;28;87909;-73
2024/04/08 00:35:13;;;;;;;2.65;1.77;;;21.90;64.50;;;;;;4948796;28;87239;-72
2024/04/08 00:37:39;;;;;;;3.63;1.20;;;21.90;64.40;;;;;;4949880;28;87526;-73
2024/04/08 00:40:06;;;;;;;1.25;0.93;;;21.90;64.40;;;;;;4947939;28;86920;-73
2024/04/08 00:42:32;;;;;;;2.30;0.90;;;21.90;64.40;;;;;;4950925;28;86772;-72
2024/04/08 00:44:58;;;;;;;2.05;1.60;;;21.90;64.20;;;;;;4941673;28;89328;-73
2024/04/08 00:47:23;;;;;;;3.00;1.65;;;21.90;64.40;;;;;;4940912;28;87515;-72
2024/04/08 00:49:50;;;;;;;1.83;1.08;;;21.90;64.40;;;;;;4950099;28;88679;-72
2024/04/08 00:52:16;;;;;;;2.47;1.63;;;21.90;64.50;;;;;;4949392;28;87662;-72
2024/04/08 00:54:42;;;;;;;1.75;1.15;;;21.90;64.40;;;;;;4949672;28;87415;-72
2024/04/08 00:57:10;;;;;;;1.83;1.15;;;21.90;64.60;;;;;;4949211;28;87754;-73
2024/04/08 00:59:35;;;;;;;2.00;1.08;;;21.90;65.50;;;;;;4948957;28;87611;-73
2024/04/08 01:02:04;;;;;;;2.95;1.35;;;21.90;64.30;;;;;;4949494;28;87046;-72
2024/04/08 01:04:31;;;;;;;2.13;1.10;;;21.80;64.30;;;;;;4948731;28;88931;-72
2024/04/08 01:06:57;;;;;;;2.80;1.15;;;21.90;64.20;;;;;;4948077;28;88617;-72
2024/04/08 01:09:22;;;;;;;1.52;0.90;;;21.80;64.40;;;;;;4952904;28;87661;-73
2024/04/08 01:11:48;;;;;;;2.22;1.33;;;21.90;64.50;;;;;;4950834;28;89523;-73
2024/04/08 01:14:14;;;;;;;2.20;1.25;;;21.90;64.30;;;;;;4951432;28;88281;-74
2024/04/08 01:16:40;;;;;;;2.30;1.10;;;21.90;64.10;;;;;;4949943;28;89662;-73
2024/04/08 01:19:06;;;;;;;3.08;1.70;;;21.90;64.40;;;;;;4950272;28;88670;-72
2024/04/08 01:21:32;;;;;;;1.35;1.00;;;21.90;64.30;;;;;;4951866;28;87302;-72
2024/04/08 01:24:00;;;;;;;2.55;0.90;;;21.90;64.30;;;;;;4947860;28;87476;-73
2024/04/08 01:26:26;;;;;;;2.10;1.00;;;21.90;64.30;;;;;;4951142;28;87834;-73
2024/04/08 01:28:53;;;;;;;1.38;0.85;;;21.90;64.30;;;;;;4951109;28;87680;-72
2024/04/08 01:31:21;;;;;;;2.53;1.10;;;21.80;64.20;;;;;;4966110;28;87297;-72
2024/04/08 01:33:47;;;;;;;1.42;1.10;;;21.80;64.00;;;;;;4953218;28;88831;-72
2024/04/08 01:36:14;;;;;;;2.75;1.48;;;21.90;64.10;;;;;;4952432;28;88301;-72
2024/04/08 01:38:40;;;;;;;1.45;1.15;;;21.90;64.00;;;;;;4952641;28;88478;-72
2024/04/08 01:41:07;;;;;;;1.45;0.75;;;21.90;64.00;;;;;;4952408;28;87497;-72
2024/04/08 01:43:33;;;;;;;1.98;1.20;;;21.90;64.20;;;;;;4950446;28;89826;-72
2024/04/08 01:45:59;;;;;;;2.13;1.38;;;21.90;64.00;;;;;;4950261;28;87682;-73
2024/04/08 01:48:25;;;;;;;2.88;1.35;;;21.90;64.20;;;;;;4952908;28;87532;-73
2024/04/08 01:50:51;;;;;;;1.58;0.80;;;21.90;65.00;;;;;;4952089;28;87515;-72
2024/04/08 01:53:16;;;;;;;2.20;1.00;;;21.90;64.30;;;;;;4952035;28;88077;-73
2024/04/08 01:55:42;;;;;;;1.80;0.95;;;21.80;63.80;;;;;;4952335;28;88850;-72
2024/04/08 01:58:08;;;;;;;1.92;1.13;;;21.90;64.10;;;;;;4949802;28;87786;-73
2024/04/08 02:00:34;;;;;;;4.32;1.05;;;21.80;63.90;;;;;;4952152;28;87241;-73
2024/04/08 02:02:59;;;;;;;3.38;1.42;;;21.80;63.90;;;;;;4947164;28;89153;-73
2024/04/08 02:05:26;;;;;;;2.92;1.25;;;21.80;63.80;;;;;;4949291;28;89501;-72
2024/04/08 02:07:52;;;;;;;2.85;1.00;;;21.80;64.10;;;;;;4949553;28;87391;-73
2024/04/08 02:10:18;;;;;;;1.52;0.95;;;21.80;64.20;;;;;;4949665;28;87525;-73
2024/04/08 02:12:45;;;;;;;1.58;0.95;;;21.80;64.00;;;;;;4950618;28;89573;-72
2024/04/08 02:15:11;;;;;;;1.58;0.95;;;21.80;64.10;;;;;;4949317;28;87833;-73
2024/04/08 02:17:37;;;;;;;2.25;0.75;;;21.80;64.10;;;;;;4948012;28;87057;-73
2024/04/08 02:20:06;;;;;;;1.20;0.75;;;21.80;64.00;;;;;;4951182;28;86817;-72
2024/04/08 02:22:32;;;;;;;1.98;1.15;;;21.80;63.80;;;;;;4950436;28;88597;-73
2024/04/08 02:24:58;;;;;;;3.45;1.50;;;21.80;64.00;;;;;;4948394;28;87795;-72
2024/04/08 02:27:24;;;;;;;1.50;0.98;;;21.80;64.10;;;;;;4949353;28;89222;-72
2024/04/08 02:29:49;;;;;;;1.33;1.00;;;21.80;64.00;;;;;;4949105;28;88078;-72
2024/04/08 02:32:15;;;;;;;1.95;0.77;;;21.80;63.70;;;;;;4944493;28;87649;-72
2024/04/08 02:34:41;;;;;;;2.53;1.02;;;21.80;63.70;;;;;;4951701;28;87692;-73
2024/04/08 02:37:06;;;;;;;1.48;0.80;;;21.80;63.70;;;;;;4951254;28;86985;-73
2024/04/08 02:39:32;;;;;;;1.35;0.95;;;21.80;63.90;;;;;;4949162;28;87392;-73
2024/04/08 02:41:58;;;;;;;1.50;1.08;;;21.80;63.70;;;;;;4949423;28;88209;-72
2024/04/08 02:44:24;;;;;;;2.75;0.98;;;21.80;63.80;;;;;;4947887;28;87619;-72
2024/04/08 02:46:49;;;;;;;1.30;1.00;;;21.80;64.50;;;;;;4951534;28;87653;-72
2024/04/08 02:49:15;;;;;;;1.02;0.85;;;21.80;63.90;;;;;;4951035;28;87268;-73
2024/04/08 02:51:41;;;;;;;1.92;0.98;;;21.80;63.50;;;;;;4951956;28;88235;-72
2024/04/08 02:54:07;;;;;;;0.68;0.55;;;21.70;63.60;;;;;;4949791;28;89592;-72
2024/04/08 02:56:35;;;;;;;1.48;1.02;;;21.80;63.70;;;;;;4951291;28;86965;-72
2024/04/08 02:59:02;;;;;;;1.75;0.82;;;21.80;63.70;;;;;;4951339;28;87525;-73
2024/04/08 03:01:27;;;;;;;1.35;0.80;;;21.80;63.70;;;;;;4949166;28;87593;-72
2024/04/08 03:03:53;;;;;;;0.95;0.55;;;21.70;63.80;;;;;;4947011;28;87687;-72
2024/04/08 03:06:19;;;;;;;2.22;0.98;;;21.80;64.00;;;;;;4950658;28;87559;-72
2024/04/08 03:08:45;;;;;;;1.35;1.05;;;21.70;63.60;;;;;;4952098;28;86824;-72
2024/04/08 03:11:10;;;;;;;2.22;1.15;;;21.70;63.90;;;;;;4951554;28;88133;-73
2024/04/08 03:13:38;;;;;;;1.08;0.85;;;21.80;63.70;;;;;;4949417;28;87388;-72
2024/04/08 03:16:04;;;;;;;1.25;1.00;;;21.80;63.80;;;;;;4951025;28;88066;-72
2024/04/08 03:18:30;;;;;;;1.08;0.93;;;21.70;63.50;;;;;;4947974;28;87196;-73
2024/04/08 03:21:00;;;;;;;1.42;0.90;;;21.70;63.90;;;;;;4948459;28;87074;-71
2024/04/08 03:23:26;;;;;;;1.73;1.17;;;21.70;63.70;;;;;;4950257;28;87353;-72
2024/04/08 03:26:00;;;;;;;1.10;0.80;;;21.70;63.60;;;;;;4949293;28;87283;-72
2024/04/08 03:28:26;;;;;;;1.40;0.90;;;21.70;63.50;;;;;;4946709;28;88320;-72
2024/04/08 03:30:53;;;;;;;1.42;0.77;;;21.70;63.40;;;;;;4948025;28;88915;-72
2024/04/08 03:33:24;;;;;;;1.80;1.05;;;21.70;64.20;;;;;;4952663;28;87098;-72
2024/04/08 03:35:51;;;;;;;1.90;1.08;;;21.80;63.30;;;;;;4947542;28;87848;-72
2024/04/08 03:38:19;;;;;;;1.33;0.85;;;21.70;63.30;;;;;;4965305;28;87351;-71
2024/04/08 03:40:45;;;;;;;1.95;0.95;;;21.70;63.50;;;;;;4947664;28;90019;-72
2024/04/08 03:43:11;;;;;;;1.42;1.02;;;21.70;63.50;;;;;;4948952;28;88745;-73
2024/04/08 03:45:38;;;;;;;1.27;0.70;;;21.70;63.50;;;;;;4949792;28;88046;-72
2024/04/08 03:48:05;;;;;;;1.30;0.70;;;21.70;63.50;;;;;;4950229;28;87275;-72
2024/04/08 03:50:37;;;;;;;2.85;1.20;;;21.70;63.60;;;;;;4947887;28;88594;-72
2024/04/08 03:53:03;;;;;;;1.92;1.15;;;21.70;64.20;;;;;;4949613;28;88133;-73
2024/04/08 03:55:30;;;;;;;0.85;0.82;;;21.70;63.30;;;;;;4951149;28;87488;-73
2024/04/08 03:57:57;;;;;;;2.17;1.20;;;21.70;63.30;;;;;;4948771;28;86970;-73
2024/04/08 04:00:23;;;;;;;1.88;1.10;;;21.70;63.30;;;;;;4965811;28;88862;-72
2024/04/08 04:02:49;;;;;;;1.77;0.90;;;21.70;63.30;;;;;;4947707;28;88144;-73
2024/04/08 04:05:15;;;;;;;0.80;0.70;;;21.70;63.10;;;;;;4947555;28;88917;-73
2024/04/08 04:07:41;;;;;;;3.13;0.95;;;21.70;63.20;;;;;;4949314;28;87844;-73
2024/04/08 04:10:08;;;;;;;1.50;1.00;;;21.70;63.20;;;;;;4948310;28;88079;-72
2024/04/08 04:12:38;;;;;;;1.85;0.80;;;21.70;63.20;;;;;;4950812;28;87810;-72
2024/04/08 04:15:09;;;;;;;1.85;1.40;;;21.70;63.30;;;;;;4949253;28;87407;-73
2024/04/08 04:17:35;;;;;;;0.63;0.60;;;21.70;63.10;;;;;;4950113;28;87459;-73
2024/04/08 04:20:05;;;;;;;1.55;0.75;;;21.70;63.20;;;;;;4948401;28;87695;-72
2024/04/08 04:22:30;;;;;;;2.25;1.05;;;21.70;63.20;;;;;;4950169;28;87971;-73
2024/04/08 04:24:56;;;;;;;1.00;0.60;;;21.70;63.20;;;;;;4950801;28;87362;-73
2024/04/08 04:27:21;;;;;;;1.88;1.02;;;21.70;63.00;;;;;;4951209;28;87126;-72
2024/04/08 04:29:47;;;;;;;1.30;0.80;;;21.70;63.10;;;;;;4948862;28;89057;-72
2024/04/08 04:32:14;;;;;;;1.95;1.08;;;21.70;62.90;;;;;;4949673;28;89340;-72
2024/04/08 04:34:39;;;;;;;1.15;1.05;;;21.70;62.80;;;;;;4948811;28;87009;-73
2024/04/08 04:37:05;;;;;;;1.88;1.00;;;21.70;62.80;;;;;;4946295;28;88507;-72
2024/04/08 04:39:31;;;;;;;2.20;0.90;;;21.70;62.70;;;;;;4951035;28;88358;-72
2024/04/08 04:41:57;;;;;;;0.65;0.60;;;21.70;62.80;;;;;;4950521;28;87536;-72
2024/04/08 04:44:23;;;;;;;2.78;1.15;;;21.70;62.80;;;;;;4954244;28;87415;-72
2024/04/08 04:46:50;;;;;;;1.27;0.82;;;21.70;62.70;;;;;;4953703;28;86437;-72
2024/04/08 04:49:15;;;;;;;2.28;0.85;;;21.70;62.70;;;;;;4951459;28;87637;-72
2024/04/08 04:51:43;;;;;;;1.00;0.73;;;21.70;62.70;;;;;;4954050;28;88555;-73
2024/04/08 04:54:09;;;;;;;1.45;0.90;;;21.70;62.70;;;;;;4950289;28;87889;-73
2024/04/08 04:56:35;;;;;;;1.58;1.30;;;21.70;62.80;;;;;;4949030;28;87259;-72
2024/04/08 04:59:01;;;;;;;2.03;0.98;;;21.70;62.80;;;;;;4952249;28;88606;-72
2024/04/08 05:01:26;;;;;;;0.90;0.77;;;21.70;62.80;;;;;;4951034;28;88220;-72
2024/04/08 05:03:53;;;;;;;2.90;0.80;;;21.70;62.80;;;;;;4954467;28;88043;-72
2024/04/08 05:06:19;;;;;;;2.20;1.35;;;21.70;62.70;;;;;;4952546;28;87826;-73
2024/04/08 05:08:45;;;;;;;1.13;0.70;;;21.70;62.70;;;;;;4949079;28;87759;-73
2024/04/08 05:11:11;;;;;;;1.02;0.70;;;21.70;62.50;;;;;;4951458;28;88540;-72
2024/04/08 05:13:36;;;;;;;0.82;0.60;;;21.70;62.80;;;;;;4948821;28;87039;-72
2024/04/08 05:16:03;;;;;;;1.65;0.70;;;21.70;62.70;;;;;;4952462;28;86876;-72
2024/04/08 05:18:30;;;;;;;1.65;1.00;;;21.70;62.60;;;;;;4952934;28;88546;-73
2024/04/08 05:20:59;;;;;;;1.25;0.70;;;21.70;62.50;;;;;;4952586;28;88122;-73
2024/04/08 05:23:26;;;;;;;;;;;21.70;62.50;;;;;;4951853;28;87318;-72
2024/04/08 05:25:55;;;;;;;0.77;0.57;;;21.60;62.50;;;;;;4967882;28;87667;-73
2024/04/08 05:28:22;;;;;;;1.75;1.00;;;21.70;62.50;;;;;;4948918;28;89476;-72
2024/04/08 05:30:49;;;;;;;0.80;0.70;;;21.60;62.60;;;;;;4967044;28;87790;-73
2024/04/08 05:33:15;;;;;;;1.20;0.85;;;21.60;62.50;;;;;;4951341;28;87307;-72
2024/04/08 05:35:44;;;;;;;0.90;0.75;;;21.60;62.60;;;;;;4950892;28;87454;-72
2024/04/08 05:38:10;;;;;;;1.40;0.87;;;21.60;62.50;;;;;;4951389;28;88163;-72
2024/04/08 05:40:40;;;;;;;1.80;0.90;;;21.60;62.50;;;;;;4952877;28;87618;-73
2024/04/08 05:43:06;;;;;;;;;;;21.60;62.50;;;;;;4951005;28;88756;-72
2024/04/08 05:45:32;;;;;;;1.63;0.80;;;21.60;62.50;;;;;;4953915;28;88291;-72
2024/04/08 05:47:58;;;;;;;1.92;0.93;;;21.60;62.10;;;;;;4952432;28;87674;-72
2024/04/08 05:50:24;;;;;;;0.73;0.60;;;21.60;62.80;;;;;;4951739;28;87295;-71
2024/04/08 05:52:51;;;;;;;1.80;1.27;;;21.60;63.10;;;;;;4953165;28;87030;-72
2024/04/08 05:55:17;;;;;;;2.25;1.15;;;21.60;63.50;;;;;;4951585;28;88057;-72
2024/04/08 05:57:43;;;;;;;4.07;0.90;;;21.60;64.00;;;;;;4951226;28;87450;-72
2024/04/08 06:00:10;;;;;;;1.73;1.23;;;21.60;63.90;;;;;;4950932;28;88464;-72
2024/04/08 06:02:39;;;;;;;1.90;0.73;;;21.70;63.70;;;;;;4952459;28;87315;-72
2024/04/08 06:05:06;;;;;;;2.88;1.17;;;21.70;64.20;;;;;;4951608;28;87671;-71
2024/04/08 06:07:32;;;;;;;2.30;0.85;;;21.80;63.80;;;;;;4951836;28;89188;-72
2024/04/08 06:09:58;;;;;;;2.08;0.80;;;21.90;63.80;;;;;;4950394;28;89048;-73
2024/04/08 06:12:24;;;;;;;6.32;1.05;;;22.00;63.50;;;;;;4951354;28;87336;-73
2024/04/08 06:14:50;;;;;;;1.20;0.95;;;22.10;63.20;;;;;;4951251;28;87494;-73
2024/04/08 06:17:16;;;;;;;1.63;0.98;;;22.20;63.00;;;;;;4945963;28;89758;-73
2024/04/08 06:19:42;;;;;;;1.77;0.70;;;22.30;62.80;;;;;;4949643;28;90611;-72
2024/04/08 06:22:09;;;;;;;1.92;0.80;;;22.40;62.70;;;;;;4950187;28;87684;-72
2024/04/08 06:24:35;;;;;;;1.30;0.80;;;22.50;62.50;;;;;;4952590;28;87720;-72
2024/04/08 06:27:01;;;;;;;2.28;0.80;;;22.50;62.30;;;;;;4951387;28;88333;-72
2024/04/08 06:29:27;;;;;;;1.08;0.63;;;22.60;62.10;;;;;;4950004;28;88336;-72
2024/04/08 06:31:52;;;;;;;1.63;1.02;;;22.60;61.70;;;;;;4946502;28;88351;-71
2024/04/08 06:34:18;;;;;;;1.70;0.75;;;22.70;61.90;;;;;;4949785;28;87548;-71
2024/04/08 06:36:44;;;;;;;2.25;1.25;;;22.70;61.60;;;;;;4948927;28;87609;-71
2024/04/08 06:39:11;;;;;;;1.30;0.77;;;22.70;62.40;;;;;;4950033;28;87794;-71
2024/04/08 06:41:37;;;;;;;1.33;0.77;;;22.80;61.50;;;;;;4948052;28;87098;-72
2024/04/08 06:44:03;;;;;;;15.15;2.35;;;22.70;61.80;;;;;;4945919;28;87290;-72
2024/04/08 06:46:29;;;;;;;13.82;2.55;;;22.80;61.70;;;;;;4946334;28;88391;-72
2024/04/08 06:48:56;;;;;;;24.52;5.13;;;22.80;61.40;;;;;;4945997;28;88000;-71
2024/04/08 06:51:22;;;;;;;33.15;5.60;;;22.80;61.10;;;;;;4940750;28;87615;-72
2024/04/08 06:53:47;;;;;;;18.77;5.38;;;22.90;60.70;;;;;;4947879;28;86933;-72
2024/04/08 06:56:14;;;;;;;23.10;5.40;;;22.90;60.50;;;;;;4947591;28;89073;-72
2024/04/08 06:58:41;;;;;;;16.00;3.85;;;22.90;60.40;;;;;;4948001;28;89502;-73
2024/04/08 07:01:07;;;;;;;20.20;4.40;;;23.00;60.30;;;;;;4945455;28;88004;-72
2024/04/08 07:03:33;;;;;;;21.88;5.20;;;23.00;60.30;;;;;;4948710;28;87352;-72
2024/04/08 07:05:59;;;;;;;15.02;3.75;;;23.00;59.90;;;;;;4942809;28;89796;-70
2024/04/08 07:08:24;;;;;;;16.58;4.30;;;23.00;59.80;;;;;;4946140;28;87920;-72
2024/04/08 07:10:50;;;;;;;20.88;4.95;;;23.00;59.60;;;;;;4948312;28;87894;-70
2024/04/08 07:13:18;;;;;;;21.48;4.60;;;23.10;59.60;;;;;;4946360;28;86794;-70
2024/04/08 07:15:52;;;;;;;11.50;3.60;;;23.10;60.50;;;;;;4945446;28;89759;-70
2024/04/08 07:18:18;;;;;;;15.70;4.00;;;23.20;59.60;;;;;;4938698;28;92989;-71
2024/04/08 07:20:44;;;;;;;11.48;4.18;;;23.10;59.70;;;;;;4945774;28;88186;-72
2024/04/08 07:23:09;;;;;;;23.27;5.35;;;23.10;59.70;;;;;;4940141;28;87761;-71
2024/04/08 07:25:36;;;;;;;13.75;4.03;;;23.00;59.70;;;;;;4946227;28;88096;-72
2024/04/08 07:28:02;;;;;;;11.70;3.63;;;22.90;59.90;;;;;;4945495;28;88845;-71
2024/04/08 07:30:28;;;;;;;12.52;3.75;;;22.90;60.30;;;;;;4948820;28;87395;-72
2024/04/08 07:32:55;;;;;;;18.73;6.35;;;23.00;60.50;;;;;;4947052;28;86997;-72
2024/04/08 07:37:51;;;;;;;29.38;11.98;;;23.00;60.30;;;;;;4932156;28;87279;-72
2024/04/08 07:40:17;;;;;;;36.25;16.88;;;23.10;60.40;;;;;;4949363;28;87385;-72
2024/04/08 07:42:43;;;;;;;49.40;22.25;;;23.00;60.70;;;;;;4948774;28;88262;-72
2024/04/08 07:45:09;;;;;;;65.82;27.25;;;23.00;60.90;;;;;;4946537;28;89011;-72
2024/04/08 07:49:35;;;;;;;88.43;35.53;;;23.00;61.00;;;;;;5314793;26;84941;-73
2024/04/08 07:52:02;;;;;;;147.88;55.20;;;23.00;59.90;;;;;;5243116;26;85317;-73
2024/04/08 07:54:28;;;;;;;114.03;42.50;;;23.00;60.40;;;;;;5243812;26;84973;-75
2024/04/08 07:56:54;;;;;;;146.77;57.10;;;22.90;60.20;;;;;;5236905;26;85871;-72
2024/04/08 07:59:21;;;;;;;157.02;60.05;;;22.90;61.50;;;;;;5237915;26;84745;-73
2024/04/08 08:01:50;;;;;;;178.45;68.68;;;22.90;62.20;;;;;;5238010;26;85670;-73
2024/04/08 08:04:16;;;;;;;144.93;60.55;;;23.00;62.30;;;;;;5242629;26;85224;-73
2024/04/08 08:06:42;;;;;;;143.07;57.72;;;23.00;62.50;;;;;;5239841;26;88949;-73
2024/04/08 08:09:09;;;;;;;157.00;60.47;;;23.10;62.00;;;;;;5239596;26;87829;-73
2024/04/08 08:11:34;;;;;;;160.82;63.90;;;23.10;61.80;;;;;;5243032;26;85002;-72
2024/04/08 08:14:00;;;;;;;165.40;62.00;;;23.10;61.80;;;;;;5244017;26;85077;-73
2024/04/08 08:16:29;;;;;;;143.23;53.90;;;23.10;61.20;;;;;;5241869;26;86357;-71
2024/04/08 08:18:55;;;;;;;147.85;55.50;;;23.00;61.10;;;;;;5244275;26;85883;-72
2024/04/08 08:21:21;;;;;;;143.23;54.65;;;23.00;61.10;;;;;;5243339;26;85175;-73
2024/04/08 08:23:47;;;;;;;144.15;54.35;;;23.00;61.50;;;;;;5242011;26;85168;-72
2024/04/08 08:26:12;;;;;;;128.65;48.92;;;23.00;61.50;;;;;;5241501;26;85251;-72
2024/04/08 08:28:38;;;;;;;125.55;49.85;;;22.90;61.30;;;;;;5228706;26;85096;-72
2024/04/08 08:31:04;;;;;;;128.38;48.00;;;22.90;61.60;;;;;;5238741;26;84888;-72
2024/04/08 08:33:31;;;;;;;103.63;44.20;;;22.90;61.10;;;;;;5240978;26;84597;-73
2024/04/08 08:35:57;;;;;;;117.70;45.05;;;22.80;61.40;;;;;;5241737;26;86694;-72
2024/04/08 08:38:22;;;;;;;107.60;41.78;;;22.80;61.60;;;;;;5239406;26;86063;-73
2024/04/08 08:41:02;;;;;;;99.75;38.67;;;22.90;61.40;;;;;;5241839;26;84610;-72
2024/04/08 08:43:31;;;;;;;94.97;38.15;;;22.80;61.20;;;;;;5240255;26;84693;-72
2024/04/08 08:45:57;;;;;;;;;;;22.90;61.00;;;;;;5240435;26;85306;-72
2024/04/08 08:48:24;;;;;;;91.63;33.90;;;22.90;61.10;;;;;;5251630;26;86626;-72
2024/04/08 08:50:50;;;;;;;85.85;32.67;;;22.90;61.10;;;;;;5239982;26;84835;-72
2024/04/08 08:53:16;;;;;;;84.20;33.25;;;22.80;61.20;;;;;;5239911;26;84807;-73
2024/04/08 08:55:43;;;;;;;82.25;31.33;;;22.90;61.00;;;;;;5236792;26;86013;-73
2024/04/08 08:58:13;;;;;;;78.28;30.90;;;22.80;60.80;;;;;;5232009;26;84842;-72
2024/04/08 09:00:40;;;;;;;78.88;30.27;;;22.90;60.60;;;;;;5218300;26;85270;-73
2024/04/08 09:03:17;;;;;;;71.45;27.90;;;22.90;60.50;;;;;;5227003;26;84660;-73
2024/04/08 09:05:43;;;;;;;70.03;27.40;;;22.90;60.60;;;;;;5226045;26;86325;-73
2024/04/08 09:08:09;;;;;;;67.47;26.92;;;22.90;60.40;;;;;;5226487;26;85701;-72
2024/04/08 09:10:54;;;;;;;63.13;27.27;;;22.90;60.40;;;;;;5223412;26;84711;-73
2024/04/08 09:13:21;;;;;;;64.97;26.30;;;22.90;60.20;;;;;;5227198;26;85058;-72
2024/04/08 09:15:48;;;;;;;62.25;23.67;;;22.90;60.30;;;;;;5227809;26;85756;-72
2024/04/08 09:18:14;;;;;;;57.20;23.02;;;22.90;60.30;;;;;;5227188;26;84827;-73
2024/04/08 09:20:40;;;;;;;49.42;20.85;;;22.90;59.90;;;;;;5226430;26;85123;-73
2024/04/08 09:23:08;;;;;;;49.35;20.48;;;22.90;59.90;;;;;;5225771;26;84362;-73
2024/04/08 09:25:35;;;;;;;50.42;19.70;;;22.90;59.80;;;;;;5223811;26;86786;-73
2024/04/08 09:28:01;;;;;;;48.83;19.85;;;22.90;59.60;;;;;;5227071;26;84889;-72
2024/04/08 09:30:26;;;;;;;42.95;18.25;;;22.90;59.70;;;;;;5226350;26;84713;-73
2024/04/08 09:32:54;;;;;;;50.55;18.73;;;22.80;59.70;;;;;;5222647;26;84590;-73
2024/04/08 09:35:20;;;;;;;45.88;17.45;;;22.90;59.60;;;;;;5227629;26;84801;-72
2024/04/08 09:37:47;;;;;;;41.42;16.58;;;22.80;59.80;;;;;;5232383;26;85545;-73
2024/04/08 09:40:14;;;;;;;40.60;17.02;;;22.80;60.50;;;;;;5255330;26;84382;-73
2024/04/08 09:42:42;;;;;;;37.13;14.57;;;22.80;59.50;;;;;;5226671;27;85031;-72
2024/04/08 09:45:10;;;;;;;34.25;14.18;;;22.90;59.60;;;;;;5230146;26;86851;-73
2024/04/08 09:47:38;;;;;;;32.20;15.00;;;22.90;59.50;;;;;;5224232;26;85548;-73
2024/04/08 09:50:05;;;;;;;35.63;14.73;;;22.90;59.60;;;;;;5225914;26;84814;-73
2024/04/08 09:52:31;;;;;;;34.85;14.48;;;22.90;59.40;;;;;;5197019;26;84635;-73
2024/04/08 09:54:57;;;;;;;28.67;13.23;;;22.90;59.60;;;;;;5221328;26;87511;-73
2024/04/08 09:57:27;;;;;;;29.85;12.98;;;23.00;59.60;;;;;;5229118;26;84789;-73
2024/04/08 09:59:56;;;;;;;28.42;11.68;;;23.00;59.50;;;;;;5224882;26;85241;-73
2024/04/08 10:02:39;;;;;;;;;;;23.00;59.60;;;;;;5226892;26;84574;-73
2024/04/08 10:05:05;;;;;;;35.50;13.63;;;22.90;59.50;;;;;;5230319;26;85809;-73
2024/04/08 10:07:35;;;;;;;26.10;11.05;;;22.90;59.70;;;;;;5225762;26;85061;-73
2024/04/08 10:10:03;;;;;;;;;;;22.90;59.70;;;;;;5225852;26;84941;-73
2024/04/08 10:12:36;;;;;;;22.83;9.50;;;22.90;59.40;;;;;;5229206;27;85019;-73
2024/04/08 10:15:12;;;;;;;21.00;8.82;;;22.90;59.30;;;;;;5225243;26;86887;-73
2024/04/08 10:17:45;;;;;;;21.88;9.43;;;22.90;59.40;;;;;;5225610;26;85147;-73
2024/04/08 10:20:18;;;;;;;25.23;9.27;;;22.90;59.40;;;;;;5228157;26;84968;-75
2024/04/08 10:22:44;;;;;;;20.85;8.68;;;22.90;59.20;;;;;;5228336;26;85236;-73
2024/04/08 10:25:29;;;;;;;19.17;8.85;;;22.90;59.60;;;;;;5227653;26;85783;-73
2024/04/08 10:28:18;;;;;;;24.75;9.35;;;22.90;59.20;;;;;;5228650;26;85002;-73
2024/04/08 10:30:52;;;;;;;20.48;8.50;;;22.90;59.60;;;;;;5221658;26;84861;-73
2024/04/08 10:33:18;;;;;;;16.73;7.85;;;22.90;59.50;;;;;;5264432;26;84640;-72
2024/04/08 10:35:44;;;;;;;20.00;8.70;;;22.90;59.30;;;;;;5236495;26;85751;-73
2024/04/08 10:38:11;;;;;;;22.27;9.20;;;22.80;59.50;;;;;;5227528;26;85927;-67
2024/04/08 10:40:38;;;;;;;19.52;7.82;;;22.80;59.80;;;;;;5232255;26;84765;-68
2024/04/08 10:43:04;;;;;;;20.63;9.10;;;22.80;59.80;;;;;;5227981;26;85283;-71
2024/04/08 10:45:30;;;;;;;22.38;8.77;;;22.80;59.90;;;;;;5227431;26;85754;-70
2024/04/08 10:47:57;;;;;;;20.13;8.45;;;22.80;60.00;;;;;;5224708;26;85641;-70
2024/04/08 10:50:24;;;;;;;21.13;8.98;;;22.80;60.10;;;;;;5223580;26;84782;-70
2024/04/08 10:52:49;;;;;;;21.95;8.65;;;22.80;60.20;;;;;;5225466;26;84751;-70
2024/04/08 10:55:16;;;;;;;19.98;8.27;;;22.80;60.40;;;;;;5237911;26;85410;-67
2024/04/08 10:57:41;;;;;;;21.92;8.25;;;22.80;60.50;;;;;;5227369;27;86329;-69
2024/04/08 11:00:07;;;;;;;22.48;8.63;;;22.80;60.50;;;;;;5226911;26;85434;-68
2024/04/08 11:02:33;;;;;;;21.95;8.00;;;22.80;60.60;;;;;;5225796;26;84437;-70
2024/04/08 11:05:03;;;;;;;19.92;8.52;;;22.80;60.50;;;;;;5224004;26;85771;-73
2024/04/08 11:07:35;;;;;;;;;;;22.80;60.60;;;;;;5225124;26;86729;-71
2024/04/08 11:10:11;;;;;;;18.90;8.38;;;22.80;61.90;;;;;;5227172;26;85092;-73
2024/04/08 11:12:37;;;;;;;17.55;8.25;;;22.80;61.20;;;;;;5225915;26;85449;-73
2024/04/08 11:15:05;;;;;;;20.73;7.85;;;22.80;61.20;;;;;;5224142;26;85524;-74
2024/04/08 11:17:32;;;;;;;21.02;8.65;;;22.80;61.40;;;;;;5222540;26;84873;-73
2024/04/08 11:20:00;;;;;;;17.75;8.90;;;22.70;61.50;;;;;;5225632;26;85105;-73
2024/04/08 11:22:26;;;;;;;14.82;7.28;;;22.70;61.40;;;;;;5227741;26;84863;-73
2024/04/08 11:24:57;;;;;;;20.20;8.68;;;22.70;61.50;;;;;;5223940;26;86201;-72
2024/04/08 11:27:26;;;;;;;15.93;8.27;;;22.70;61.60;;;;;;5228366;27;84928;-72
2024/04/08 11:29:53;;;;;;;16.40;7.75;;;22.70;61.30;;;;;;5254743;26;84549;-72
2024/04/08 11:32:22;;;;;;;18.88;8.15;;;22.70;61.20;;;;;;5242409;26;84970;-72
2024/04/08 11:34:49;;;;;;;;;;;22.70;61.30;;;;;;5227353;26;85639;-73
2024/04/08 11:37:15;;;;;;;18.00;7.90;;;22.60;61.60;;;;;;5227295;26;86478;-73
2024/04/08 11:39:44;;;;;;;17.83;7.88;;;22.60;61.50;;;;;;5227592;27;85016;-73
2024/04/08 11:42:11;;;;;;;19.27;7.88;;;22.60;61.60;;;;;;5226008;26;85672;-73
2024/04/08 11:44:42;;;;;;;15.75;7.47;;;22.60;61.50;;;;;;5226622;26;86415;-72
2024/04/08 11:47:13;;;;;;;18.42;8.35;;;22.60;61.90;;;;;;5228365;26;84737;-73
2024/04/08 11:49:40;;;;;;;18.52;7.82;;;22.50;61.80;;;;;;5227843;26;84987;-73
2024/04/08 11:52:06;;;;;;;17.15;7.28;;;22.60;61.70;;;;;;5229162;26;84304;-73
2024/04/08 11:54:32;;;;;;;18.95;7.80;;;22.60;61.60;;;;;;5227073;27;85036;-73
2024/04/08 11:56:58;;;;;;;22.15;7.75;;;22.50;61.60;;;;;;5228777;26;84912;-72
2024/04/08 11:59:24;;;;;;;16.27;6.85;;;22.50;61.80;;;;;;5227163;26;84773;-72
2024/04/08 12:01:51;;;;;;;16.75;7.72;;;22.50;61.90;;;;;;5226135;26;85063;-72
2024/04/08 12:04:17;;;;;;;17.45;7.70;;;22.50;61.70;;;;;;5223892;26;86260;-72
2024/04/08 12:06:43;;;;;;;17.13;6.70;;;22.50;62.00;;;;;;5228485;26;84238;-72
2024/04/08 12:09:09;;;;;;;14.85;7.88;;;22.40;62.00;;;;;;5224289;26;84931;-72
2024/04/08 12:11:35;;;;;;;19.92;7.47;;;22.40;62.00;;;;;;5227702;26;85083;-72
2024/04/08 12:14:01;;;;;;;18.50;7.53;;;22.50;62.20;;;;;;5225084;26;85729;-72
2024/04/08 12:16:26;;;;;;;19.80;7.40;;;22.50;62.00;;;;;;5228408;26;84923;-72
2024/04/08 12:18:53;;;;;;;15.32;7.22;;;22.50;62.00;;;;;;5226620;26;84685;-73
2024/04/08 12:21:19;;;;;;;15.18;6.78;;;22.50;62.10;;;;;;5227147;27;85276;-73
2024/04/08 12:23:45;;;;;;;16.73;7.47;;;22.40;61.90;;;;;;5227199;26;85668;-72
2024/04/08 12:26:13;;;;;;;15.63;6.18;;;22.50;62.00;;;;;;5227023;26;84815;-73
2024/04/08 12:28:42;;;;;;;26.08;6.22;;;22.50;62.70;;;;;;5222318;26;85370;-73
2024/04/08 12:31:08;;;;;;;16.53;7.17;;;22.50;61.90;;;;;;5209529;26;84240;-72
2024/04/08 12:33:34;;;;;;;16.27;6.40;;;22.50;61.80;;;;;;5237750;26;86029;-72
2024/04/08 12:36:00;;;;;;;15.63;7.28;;;22.50;61.90;;;;;;5214943;26;87357;-73
2024/04/08 12:38:27;;;;;;;14.88;6.57;;;22.40;62.00;;;;;;5227908;26;85230;-73
2024/04/08 12:40:52;;;;;;;15.00;6.82;;;22.40;61.80;;;;;;5228412;26;84849;-73
2024/04/08 12:43:18;;;;;;;14.18;5.97;;;22.40;61.60;;;;;;5231166;26;85694;-74